sensor_id;sensor_type;location;lat;lon;timestamp;temperature;humidity
14946;DHT22;7567;50.916;6.900;2023-11-22T07:47:20;2.70;99.90
14946;DHT22;7567;50.916;6.900;2023-11-22T07:49:52;2.90;99.90
14946;DHT22;7567;50.916;6.900;2023-11-22T07:52:21;3.00;99.90
14946;DHT22;7567;50.916;6.900;2023-11-22T07:54:48;3.00;99.90
14946;DHT22;7567;50.916;6.900;2023-11-22T07:57:14;3.00;99.90
14946;DHT22;7567;50.916;6.900;2023-11-22T07:59:40;3.00;99.90
14946;DHT22;7567;50.916;6.900;2023-11-22T08:02:12;3.10;99.90
14946;DHT22;7567;50.916;6.900;2023-11-22T08:04:45;3.10;99.90
14946;DHT22;7567;50.916;6.900;2023-11-22T08:07:16;3.10;99.90
14946;DHT22;7567;50.916;6.900;2023-11-22T08:09:42;3.10;99.90
14946;DHT22;7567;50.916;6.900;2023-11-22T08:12:11;3.10;99.90
14946;DHT22;7567;50.916;6.900;2023-11-22T08:14:39;3.10;99.90
14946;DHT22;7567;50.916;6.900;2023-11-22T08:17:06;3.20;99.90
14946;DHT22;7567;50.916;6.900;2023-11-22T08:19:32;3.10;99.90
14946;DHT22;7567;50.916;6.900;2023-11-22T08:21:58;3.10;99.90
14946;DHT22;7567;50.916;6.900;2023-11-22T08:24:24;3.10;99.90
14946;DHT22;7567;50.916;6.900;2023-11-22T08:26:50;3.20;99.90
14946;DHT22;7567;50.916;6.900;2023-11-22T08:29:15;3.30;99.90
14946;DHT22;7567;50.916;6.900;2023-11-22T08:31:41;3.30;99.90
14946;DHT22;7567;50.916;6.900;2023-11-22T08:34:07;3.40;99.90
14946;DHT22;7567;50.916;6.900;2023-11-22T08:36:34;3.40;99.90
14946;DHT22;7567;50.916;6.900;2023-11-22T08:39:01;3.50;99.90
14946;DHT22;7567;50.916;6.900;2023-11-22T08:41:30;3.60;99.90
14946;DHT22;7567;50.916;6.900;2023-11-22T08:43:57;3.60;99.90
14946;DHT22;7567;50.916;6.900;2023-11-22T08:46:33;3.60;99.90
14946;DHT22;7567;50.916;6.900;2023-11-22T08:49:00;3.70;99.90
14946;DHT22;7567;50.916;6.900;2023-11-22T08:51:28;3.90;99.90
14946;DHT22;7567;50.916;6.900;2023-11-22T08:54:03;3.90;99.90
14946;DHT22;7567;50.916;6.900;2023-11-22T08:56:30;4.10;99.90
14946;DHT22;7567;50.916;6.900;2023-11-22T08:58:55;4.20;99.90
14946;DHT22;7567;50.916;6.900;2023-11-22T09:01:22;4.30;99.90
14946;DHT22;7567;50.916;6.900;2023-11-22T09:04:00;4.40;99.90
14946;DHT22;7567;50.916;6.900;2023-11-22T09:09:13;4.80;99.90
14946;DHT22;7567;50.916;6.900;2023-11-22T09:12:02;4.90;99.90
14946;DHT22;7567;50.916;6.900;2023-11-22T09:14:28;5.00;99.90
14946;DHT22;7567;50.916;6.900;2023-11-22T09:17:09;5.30;99.90
14946;DHT22;7567;50.916;6.900;2023-11-22T09:19:47;5.40;99.90
14946;DHT22;7567;50.916;6.900;2023-11-22T09:22:13;5.70;99.90
14946;DHT22;7567;50.916;6.900;2023-11-22T09:24:40;5.90;99.90
14946;DHT22;7567;50.916;6.900;2023-11-22T09:27:06;6.00;99.90
14946;DHT22;7567;50.916;6.900;2023-11-22T09:29:36;6.20;99.90
14946;DHT22;7567;50.916;6.900;2023-11-22T09:32:02;6.40;99.90
14946;DHT22;7567;50.916;6.900;2023-11-22T09:34:28;6.70;99.90
14946;DHT22;7567;50.916;6.900;2023-11-22T09:36:55;6.90;99.90
14946;DHT22;7567;50.916;6.900;2023-11-22T09:39:21;7.10;99.90
14946;DHT22;7567;50.916;6.900;2023-11-22T09:41:48;7.40;99.90
14946;DHT22;7567;50.916;6.900;2023-11-22T09:44:17;7.40;1.00
14946;DHT22;7567;50.916;6.900;2023-11-22T09:46:43;7.50;1.00
14946;DHT22;7567;50.916;6.900;2023-11-22T09:49:15;7.30;1.00
14946;DHT22;7567;50.916;6.900;2023-11-22T09:51:47;7.30;1.00
14946;DHT22;7567;50.916;6.900;2023-11-22T09:54:14;7.30;1.00
14946;DHT22;7567;50.916;6.900;2023-11-22T09:56:51;7.40;1.00
14946;DHT22;7567;50.916;6.900;2023-11-22T09:59:20;7.30;99.90
14946;DHT22;7567;50.916;6.900;2023-11-22T10:01:56;7.10;99.90
14946;DHT22;7567;50.916;6.900;2023-11-22T10:04:25;7.30;99.90
14946;DHT22;7567;50.916;6.900;2023-11-22T10:06:52;7.60;1.00
14946;DHT22;7567;50.916;6.900;2023-11-22T10:09:18;7.60;1.00
14946;DHT22;7567;50.916;6.900;2023-11-22T10:11:44;7.80;99.90
14946;DHT22;7567;50.916;6.900;2023-11-22T10:14:22;7.70;99.90
14946;DHT22;7567;50.916;6.900;2023-11-22T10:17:00;7.80;99.90
14946;DHT22;7567;50.916;6.900;2023-11-22T10:19:27;7.90;99.90
14946;DHT22;7567;50.916;6.900;2023-11-22T10:22:07;7.90;1.00
14946;DHT22;7567;50.916;6.900;2023-11-22T10:24:34;8.00;1.00
14946;DHT22;7567;50.916;6.900;2023-11-22T10:27:01;8.00;1.00
14946;DHT22;7567;50.916;6.900;2023-11-22T10:29:28;7.90;1.00
14946;DHT22;7567;50.916;6.900;2023-11-22T10:31:54;8.00;43.50
14946;DHT22;7567;50.916;6.900;2023-11-22T10:34:24;8.10;99.90
14946;DHT22;7567;50.916;6.900;2023-11-22T10:37:02;8.00;99.90
14946;DHT22;7567;50.916;6.900;2023-11-22T10:39:29;7.90;70.00
14946;DHT22;7567;50.916;6.900;2023-11-22T10:41:55;8.00;1.00
14946;DHT22;7567;50.916;6.900;2023-11-22T10:44:22;8.00;1.00
14946;DHT22;7567;50.916;6.900;2023-11-22T10:47:26;8.00;1.00
14946;DHT22;7567;50.916;6.900;2023-11-22T10:50:05;8.00;99.90
14946;DHT22;7567;50.916;6.900;2023-11-22T10:52:35;7.90;1.00
14946;DHT22;7567;50.916;6.900;2023-11-22T10:55:05;8.10;99.90
14946;DHT22;7567;50.916;6.900;2023-11-22T10:57:42;8.10;1.00
14946;DHT22;7567;50.916;6.900;2023-11-22T11:00:10;8.40;21.70
14946;DHT22;7567;50.916;6.900;2023-11-22T11:02:45;8.50;1.00
14946;DHT22;7567;50.916;6.900;2023-11-22T11:05:21;8.50;1.00
14946;DHT22;7567;50.916;6.900;2023-11-22T11:08:07;8.70;99.90
14946;DHT22;7567;50.916;6.900;2023-11-22T11:10:43;8.80;99.90
14946;DHT22;7567;50.916;6.900;2023-11-22T11:13:11;9.00;1.00
14946;DHT22;7567;50.916;6.900;2023-11-22T11:15:42;9.00;99.90
14946;DHT22;7567;50.916;6.900;2023-11-22T11:18:26;9.10;1.00
14946;DHT22;7567;50.916;6.900;2023-11-22T11:20:58;9.20;1.00
14946;DHT22;7567;50.916;6.900;2023-11-22T11:23:28;8.90;1.00
14946;DHT22;7567;50.916;6.900;2023-11-22T11:25:56;9.00;1.00
14946;DHT22;7567;50.916;6.900;2023-11-22T11:28:43;9.30;99.90
14946;DHT22;7567;50.916;6.900;2023-11-22T11:31:15;9.10;1.00
14946;DHT22;7567;50.916;6.900;2023-11-22T11:38:59;8.90;1.00
14946;DHT22;7567;50.916;6.900;2023-11-22T11:41:33;8.80;1.00
14946;DHT22;7567;50.916;6.900;2023-11-22T11:44:04;8.90;99.90
14946;DHT22;7567;50.916;6.900;2023-11-22T11:46:34;9.10;1.00
14946;DHT22;7567;50.916;6.900;2023-11-22T11:49:00;9.10;99.90
14946;DHT22;7567;50.916;6.900;2023-11-22T11:51:50;9.30;99.90
14946;DHT22;7567;50.916;6.900;2023-11-22T11:54:24;9.30;99.90
14946;DHT22;7567;50.916;6.900;2023-11-22T11:56:50;9.50;1.00
14946;DHT22;7567;50.916;6.900;2023-11-22T11:59:33;9.70;99.90
14946;DHT22;7567;50.916;6.900;2023-11-22T12:02:04;9.90;99.90
14946;DHT22;7567;50.916;6.900;2023-11-22T12:04:31;10.00;1.00
14946;DHT22;7567;50.916;6.900;2023-11-22T12:06:58;10.10;93.80
14946;DHT22;7567;50.916;6.900;2023-11-22T12:09:27;10.20;1.00
14946;DHT22;7567;50.916;6.900;2023-11-22T12:11:59;10.30;1.00
14946;DHT22;7567;50.916;6.900;2023-11-22T12:14:27;10.10;1.00
14946;DHT22;7567;50.916;6.900;2023-11-22T12:16:53;10.20;1.00
14946;DHT22;7567;50.916;6.900;2023-11-22T12:19:24;10.00;99.90
14946;DHT22;7567;50.916;6.900;2023-11-22T12:21:51;10.20;99.90
14946;DHT22;7567;50.916;6.900;2023-11-22T12:24:17;10.10;99.90
14946;DHT22;7567;50.916;6.900;2023-11-22T12:26:46;9.70;1.00
14946;DHT22;7567;50.916;6.900;2023-11-22T12:29:15;9.50;1.00
14946;DHT22;7567;50.916;6.900;2023-11-22T12:32:07;9.50;99.90
14946;DHT22;7567;50.916;6.900;2023-11-22T12:34:32;9.30;1.00
14946;DHT22;7567;50.916;6.900;2023-11-22T12:36:59;9.20;1.00
14946;DHT22;7567;50.916;6.900;2023-11-22T12:39:26;9.30;1.00
14946;DHT22;7567;50.916;6.900;2023-11-22T12:41:53;9.80;1.00
14946;DHT22;7567;50.916;6.900;2023-11-22T12:44:20;10.60;99.90
14946;DHT22;7567;50.916;6.900;2023-11-22T12:46:47;11.50;1.00
14946;DHT22;7567;50.916;6.900;2023-11-22T12:49:24;12.20;1.00
14946;DHT22;7567;50.916;6.900;2023-11-22T12:51:53;13.10;1.00
14946;DHT22;7567;50.916;6.900;2023-11-22T12:54:20;13.30;1.00
14946;DHT22;7567;50.916;6.900;2023-11-22T12:56:51;12.80;1.00
14946;DHT22;7567;50.916;6.900;2023-11-22T12:59:24;12.10;1.00
14946;DHT22;7567;50.916;6.900;2023-11-22T13:01:50;12.60;1.00
14946;DHT22;7567;50.916;6.900;2023-11-22T13:04:18;12.80;99.90
14946;DHT22;7567;50.916;6.900;2023-11-22T13:06:44;12.70;99.90
14946;DHT22;7567;50.916;6.900;2023-11-22T13:09:10;13.00;1.00
14946;DHT22;7567;50.916;6.900;2023-11-22T13:11:43;13.10;99.90
14946;DHT22;7567;50.916;6.900;2023-11-22T13:14:09;13.60;1.00
14946;DHT22;7567;50.916;6.900;2023-11-22T13:16:35;13.90;1.00
14946;DHT22;7567;50.916;6.900;2023-11-22T13:19:04;14.30;1.00
14946;DHT22;7567;50.916;6.900;2023-11-22T13:21:30;14.50;99.90
14946;DHT22;7567;50.916;6.900;2023-11-22T13:23:57;14.40;99.90
14946;DHT22;7567;50.916;6.900;2023-11-22T13:26:25;14.00;99.90
14946;DHT22;7567;50.916;6.900;2023-11-22T13:28:52;13.70;99.90
14946;DHT22;7567;50.916;6.900;2023-11-22T13:31:20;13.40;99.90
14946;DHT22;7567;50.916;6.900;2023-11-22T13:33:47;13.30;99.90
14946;DHT22;7567;50.916;6.900;2023-11-22T13:36:13;13.60;99.90
14946;DHT22;7567;50.916;6.900;2023-11-22T13:38:40;13.60;99.90
14946;DHT22;7567;50.916;6.900;2023-11-22T13:41:06;13.10;99.90
14946;DHT22;7567;50.916;6.900;2023-11-22T13:43:32;12.50;99.90
14946;DHT22;7567;50.916;6.900;2023-11-22T13:46:07;11.90;99.90
14946;DHT22;7567;50.916;6.900;2023-11-22T13:48:36;12.10;99.90
14946;DHT22;7567;50.916;6.900;2023-11-22T13:51:02;12.60;99.90
14946;DHT22;7567;50.916;6.900;2023-11-22T13:53:29;12.60;99.90
14946;DHT22;7567;50.916;6.900;2023-11-22T13:55:59;12.80;99.90
14946;DHT22;7567;50.916;6.900;2023-11-22T13:58:26;12.60;99.90
14946;DHT22;7567;50.916;6.900;2023-11-22T14:00:52;12.10;1.00
14946;DHT22;7567;50.916;6.900;2023-11-22T14:03:20;11.80;1.00
14946;DHT22;7567;50.916;6.900;2023-11-22T14:05:47;11.00;99.90
14946;DHT22;7567;50.916;6.900;2023-11-22T14:08:13;10.20;99.90
14946;DHT22;7567;50.916;6.900;2023-11-22T14:10:41;9.60;99.90
14946;DHT22;7567;50.916;6.900;2023-11-22T14:13:07;9.30;1.00
14946;DHT22;7567;50.916;6.900;2023-11-22T14:15:34;8.90;1.00
14946;DHT22;7567;50.916;6.900;2023-11-22T14:18:02;8.60;99.90
14946;DHT22;7567;50.916;6.900;2023-11-22T14:20:50;8.40;99.90
14946;DHT22;7567;50.916;6.900;2023-11-22T14:23:16;8.20;1.00
14946;DHT22;7567;50.916;6.900;2023-11-22T14:25:43;8.00;69.00
14946;DHT22;7567;50.916;6.900;2023-11-22T14:28:15;8.00;1.00
14946;DHT22;7567;50.916;6.900;2023-11-22T14:30:41;8.00;99.90
14946;DHT22;7567;50.916;6.900;2023-11-22T14:33:08;7.90;99.90
14946;DHT22;7567;50.916;6.900;2023-11-22T14:35:35;7.90;99.90
14946;DHT22;7567;50.916;6.900;2023-11-22T14:38:01;7.80;99.90
14946;DHT22;7567;50.916;6.900;2023-11-22T14:40:28;7.70;1.00
14946;DHT22;7567;50.916;6.900;2023-11-22T14:42:56;7.50;37.30
14946;DHT22;7567;50.916;6.900;2023-11-22T14:45:22;7.40;80.60
14946;DHT22;7567;50.916;6.900;2023-11-22T14:47:49;7.40;6.60
14946;DHT22;7567;50.916;6.900;2023-11-22T14:50:17;7.30;45.20
14946;DHT22;7567;50.916;6.900;2023-11-22T14:52:43;7.30;1.00
14946;DHT22;7567;50.916;6.900;2023-11-22T14:55:10;7.20;86.60
14946;DHT22;7567;50.916;6.900;2023-11-22T14:57:38;7.10;99.90
14946;DHT22;7567;50.916;6.900;2023-11-22T15:00:05;7.10;99.90
14946;DHT22;7567;50.916;6.900;2023-11-22T15:02:39;7.10;99.90
14946;DHT22;7567;50.916;6.900;2023-11-22T15:05:05;7.00;1.00
14946;DHT22;7567;50.916;6.900;2023-11-22T15:07:56;7.00;1.00
14946;DHT22;7567;50.916;6.900;2023-11-22T15:10:23;6.90;99.90
14946;DHT22;7567;50.916;6.900;2023-11-22T15:12:48;6.80;99.90
14946;DHT22;7567;50.916;6.900;2023-11-22T15:15:14;6.80;99.90
14946;DHT22;7567;50.916;6.900;2023-11-22T15:17:40;6.80;1.00
14946;DHT22;7567;50.916;6.900;2023-11-22T15:20:07;6.70;1.00
14946;DHT22;7567;50.916;6.900;2023-11-22T15:22:37;6.70;1.00
14946;DHT22;7567;50.916;6.900;2023-11-22T15:25:04;6.60;99.90
14946;DHT22;7567;50.916;6.900;2023-11-22T15:27:33;6.60;99.90
14946;DHT22;7567;50.916;6.900;2023-11-22T15:29:59;6.60;1.00
14946;DHT22;7567;50.916;6.900;2023-11-22T15:32:25;6.60;1.00
14946;DHT22;7567;50.916;6.900;2023-11-22T15:34:50;6.40;99.90
14946;DHT22;7567;50.916;6.900;2023-11-22T15:37:17;6.50;1.00
14946;DHT22;7567;50.916;6.900;2023-11-22T15:39:43;6.50;1.00
14946;DHT22;7567;50.916;6.900;2023-11-22T15:42:09;6.40;1.00
14946;DHT22;7567;50.916;6.900;2023-11-22T15:44:35;6.40;1.00
14946;DHT22;7567;50.916;6.900;2023-11-22T15:47:01;6.50;1.00
14946;DHT22;7567;50.916;6.900;2023-11-22T15:49:35;6.40;13.10
14946;DHT22;7567;50.916;6.900;2023-11-22T15:52:01;6.30;5.80
14946;DHT22;7567;50.916;6.900;2023-11-22T15:54:27;6.40;1.00
14946;DHT22;7567;50.916;6.900;2023-11-22T15:56:53;6.30;1.00
14946;DHT22;7567;50.916;6.900;2023-11-22T15:59:19;6.30;7.60
14946;DHT22;7567;50.916;6.900;2023-11-22T16:01:45;6.40;33.60
14946;DHT22;7567;50.916;6.900;2023-11-22T16:04:11;6.30;62.30
14946;DHT22;7567;50.916;6.900;2023-11-22T16:06:37;6.30;47.30
14946;DHT22;7567;50.916;6.900;2023-11-22T16:09:04;6.30;65.90
14946;DHT22;7567;50.916;6.900;2023-11-22T16:11:35;6.20;9.80
14946;DHT22;7567;50.916;6.900;2023-11-22T16:14:14;6.30;34.50
14946;DHT22;7567;50.916;6.900;2023-11-22T16:16:41;6.30;73.40
14946;DHT22;7567;50.916;6.900;2023-11-22T16:19:07;6.30;99.90
14946;DHT22;7567;50.916;6.900;2023-11-22T16:21:33;6.20;94.00
14946;DHT22;7567;50.916;6.900;2023-11-22T16:23:59;6.20;99.90
14946;DHT22;7567;50.916;6.900;2023-11-22T16:26:26;6.20;99.90
14946;DHT22;7567;50.916;6.900;2023-11-22T16:28:56;6.20;99.90
14946;DHT22;7567;50.916;6.900;2023-11-22T16:31:22;6.20;99.90
14946;DHT22;7567;50.916;6.900;2023-11-22T16:33:48;6.20;99.90
14946;DHT22;7567;50.916;6.900;2023-11-22T16:36:14;6.10;31.10
14946;DHT22;7567;50.916;6.900;2023-11-22T16:38:39;6.10;20.40
14946;DHT22;7567;50.916;6.900;2023-11-22T16:41:06;6.20;99.90
14946;DHT22;7567;50.916;6.900;2023-11-22T16:43:32;6.10;99.90
14946;DHT22;7567;50.916;6.900;2023-11-22T16:45:58;6.20;99.90
14946;DHT22;7567;50.916;6.900;2023-11-22T16:48:24;6.10;99.90
14946;DHT22;7567;50.916;6.900;2023-11-22T16:50:50;6.10;99.90
14946;DHT22;7567;50.916;6.900;2023-11-22T16:53:18;6.00;99.90
14946;DHT22;7567;50.916;6.900;2023-11-22T16:55:44;6.00;99.90
14946;DHT22;7567;50.916;6.900;2023-11-22T16:58:10;6.00;99.90
14946;DHT22;7567;50.916;6.900;2023-11-22T17:00:36;6.10;99.90
14946;DHT22;7567;50.916;6.900;2023-11-22T17:03:02;6.00;99.90
14946;DHT22;7567;50.916;6.900;2023-11-22T17:05:28;6.00;99.90
14946;DHT22;7567;50.916;6.900;2023-11-22T17:07:54;6.00;99.90
14946;DHT22;7567;50.916;6.900;2023-11-22T17:10:22;6.00;99.90
14946;DHT22;7567;50.916;6.900;2023-11-22T17:12:49;6.00;99.90
14946;DHT22;7567;50.916;6.900;2023-11-22T17:15:15;6.00;99.90
14946;DHT22;7567;50.916;6.900;2023-11-22T17:17:41;6.00;99.90
14946;DHT22;7567;50.916;6.900;2023-11-22T17:20:10;6.00;99.90
14946;DHT22;7567;50.916;6.900;2023-11-22T17:23:04;6.00;99.90
14946;DHT22;7567;50.916;6.900;2023-11-22T17:25:30;6.00;99.90
14946;DHT22;7567;50.916;6.900;2023-11-22T17:27:56;5.90;99.90
14946;DHT22;7567;50.916;6.900;2023-11-22T17:30:22;5.90;99.90
14946;DHT22;7567;50.916;6.900;2023-11-22T17:32:51;5.90;99.90
14946;DHT22;7567;50.916;6.900;2023-11-22T17:35:17;5.90;99.90
14946;DHT22;7567;50.916;6.900;2023-11-22T17:37:43;5.90;99.90
14946;DHT22;7567;50.916;6.900;2023-11-22T17:40:09;5.70;99.90
14946;DHT22;7567;50.916;6.900;2023-11-22T17:42:35;5.70;99.90
14946;DHT22;7567;50.916;6.900;2023-11-22T17:45:01;5.70;99.90
14946;DHT22;7567;50.916;6.900;2023-11-22T17:47:27;5.70;99.90
14946;DHT22;7567;50.916;6.900;2023-11-22T17:49:58;5.70;99.90
14946;DHT22;7567;50.916;6.900;2023-11-22T17:52:24;5.70;20.90
14946;DHT22;7567;50.916;6.900;2023-11-22T17:54:50;5.60;99.90
14946;DHT22;7567;50.916;6.900;2023-11-22T17:57:16;5.70;99.90
14946;DHT22;7567;50.916;6.900;2023-11-22T17:59:42;5.70;1.00
14946;DHT22;7567;50.916;6.900;2023-11-22T18:02:09;5.70;38.00
14946;DHT22;7567;50.916;6.900;2023-11-22T18:04:34;5.60;1.00
14946;DHT22;7567;50.916;6.900;2023-11-22T18:07:01;5.70;1.00
14946;DHT22;7567;50.916;6.900;2023-11-22T18:09:27;5.80;1.00
14946;DHT22;7567;50.916;6.900;2023-11-22T18:11:53;5.80;36.50
14946;DHT22;7567;50.916;6.900;2023-11-22T18:14:19;5.90;1.00
14946;DHT22;7567;50.916;6.900;2023-11-22T18:16:45;5.80;37.10
14946;DHT22;7567;50.916;6.900;2023-11-22T18:19:32;5.80;19.80
14946;DHT22;7567;50.916;6.900;2023-11-22T18:21:58;5.90;99.90
14946;DHT22;7567;50.916;6.900;2023-11-22T18:24:24;5.80;99.90
14946;DHT22;7567;50.916;6.900;2023-11-22T18:26:53;5.80;99.90
14946;DHT22;7567;50.916;6.900;2023-11-22T18:29:20;5.80;1.00
14946;DHT22;7567;50.916;6.900;2023-11-22T18:31:49;5.70;13.90
14946;DHT22;7567;50.916;6.900;2023-11-22T18:34:15;5.70;1.00
14946;DHT22;7567;50.916;6.900;2023-11-22T18:36:47;5.60;31.00
14946;DHT22;7567;50.916;6.900;2023-11-22T18:39:13;5.70;99.90
14946;DHT22;7567;50.916;6.900;2023-11-22T18:41:39;5.60;99.90
14946;DHT22;7567;50.916;6.900;2023-11-22T18:44:05;5.60;99.90
14946;DHT22;7567;50.916;6.900;2023-11-22T18:46:32;5.60;99.90
14946;DHT22;7567;50.916;6.900;2023-11-22T18:49:01;5.60;99.90
14946;DHT22;7567;50.916;6.900;2023-11-22T18:51:27;5.60;99.90
14946;DHT22;7567;50.916;6.900;2023-11-22T18:53:53;5.50;99.90
14946;DHT22;7567;50.916;6.900;2023-11-22T18:56:19;5.40;99.90
14946;DHT22;7567;50.916;6.900;2023-11-22T18:58:47;5.30;99.90
14946;DHT22;7567;50.916;6.900;2023-11-22T19:01:13;5.20;99.90
14946;DHT22;7567;50.916;6.900;2023-11-22T19:03:39;5.20;99.90
14946;DHT22;7567;50.916;6.900;2023-11-22T19:06:05;5.10;99.90
14946;DHT22;7567;50.916;6.900;2023-11-22T19:08:33;5.00;99.90
14946;DHT22;7567;50.916;6.900;2023-11-22T19:10:59;5.00;99.90
14946;DHT22;7567;50.916;6.900;2023-11-22T19:13:25;4.90;99.90
14946;DHT22;7567;50.916;6.900;2023-11-22T19:15:51;5.00;99.90
14946;DHT22;7567;50.916;6.900;2023-11-22T19:18:18;5.00;99.90
14946;DHT22;7567;50.916;6.900;2023-11-22T19:20:44;4.90;99.90
14946;DHT22;7567;50.916;6.900;2023-11-22T19:23:10;4.80;99.90
14946;DHT22;7567;50.916;6.900;2023-11-22T19:25:37;4.80;99.90
14946;DHT22;7567;50.916;6.900;2023-11-22T19:28:03;4.80;99.90
14946;DHT22;7567;50.916;6.900;2023-11-22T19:30:32;4.80;99.90
14946;DHT22;7567;50.916;6.900;2023-11-22T19:33:15;4.80;99.90
14946;DHT22;7567;50.916;6.900;2023-11-22T19:35:42;4.80;99.90
14946;DHT22;7567;50.916;6.900;2023-11-22T19:38:08;4.70;99.90
14946;DHT22;7567;50.916;6.900;2023-11-22T19:40:37;4.70;99.90
14946;DHT22;7567;50.916;6.900;2023-11-22T19:43:04;4.70;99.90
14946;DHT22;7567;50.916;6.900;2023-11-22T19:45:30;4.60;99.90
14946;DHT22;7567;50.916;6.900;2023-11-22T19:47:56;4.60;99.90
14946;DHT22;7567;50.916;6.900;2023-11-22T19:50:22;4.60;99.90
14946;DHT22;7567;50.916;6.900;2023-11-22T19:52:49;4.60;99.90
14946;DHT22;7567;50.916;6.900;2023-11-22T19:55:15;4.60;99.90
14946;DHT22;7567;50.916;6.900;2023-11-22T19:57:41;4.60;99.90
14946;DHT22;7567;50.916;6.900;2023-11-22T20:00:09;4.60;99.90
14946;DHT22;7567;50.916;6.900;2023-11-22T20:02:35;4.60;99.90
14946;DHT22;7567;50.916;6.900;2023-11-22T20:05:02;4.60;99.90
14946;DHT22;7567;50.916;6.900;2023-11-22T20:07:30;4.60;99.90
14946;DHT22;7567;50.916;6.900;2023-11-22T20:13:06;4.50;99.90
14946;DHT22;7567;50.916;6.900;2023-11-22T20:15:32;4.40;99.90
14946;DHT22;7567;50.916;6.900;2023-11-22T20:17:58;4.40;99.90
14946;DHT22;7567;50.916;6.900;2023-11-22T20:20:24;4.30;99.90
14946;DHT22;7567;50.916;6.900;2023-11-22T20:22:51;4.40;99.90
14946;DHT22;7567;50.916;6.900;2023-11-22T20:25:17;4.30;99.90
14946;DHT22;7567;50.916;6.900;2023-11-22T20:27:43;4.20;99.90
14946;DHT22;7567;50.916;6.900;2023-11-22T20:30:09;4.20;99.90
14946;DHT22;7567;50.916;6.900;2023-11-22T20:32:35;4.20;99.90
14946;DHT22;7567;50.916;6.900;2023-11-22T20:35:01;4.30;99.90
14946;DHT22;7567;50.916;6.900;2023-11-22T20:37:27;4.30;99.90
14946;DHT22;7567;50.916;6.900;2023-11-22T20:39:53;4.30;99.90
14946;DHT22;7567;50.916;6.900;2023-11-22T20:42:19;4.30;99.90
14946;DHT22;7567;50.916;6.900;2023-11-22T20:44:46;4.20;99.90
14946;DHT22;7567;50.916;6.900;2023-11-22T20:47:12;4.10;99.90
14946;DHT22;7567;50.916;6.900;2023-11-22T20:49:38;4.10;99.90
14946;DHT22;7567;50.916;6.900;2023-11-22T20:52:04;4.10;99.90
14946;DHT22;7567;50.916;6.900;2023-11-22T20:54:29;4.10;99.90
14946;DHT22;7567;50.916;6.900;2023-11-22T20:56:55;4.00;99.90
14946;DHT22;7567;50.916;6.900;2023-11-22T20:59:21;4.00;99.90
14946;DHT22;7567;50.916;6.900;2023-11-22T21:01:47;4.00;99.90
14946;DHT22;7567;50.916;6.900;2023-11-22T21:04:13;4.00;99.90
14946;DHT22;7567;50.916;6.900;2023-11-22T21:06:42;4.00;99.90
14946;DHT22;7567;50.916;6.900;2023-11-22T21:09:08;4.10;99.90
14946;DHT22;7567;50.916;6.900;2023-11-22T21:11:39;4.00;99.90
14946;DHT22;7567;50.916;6.900;2023-11-22T21:14:07;4.00;99.90
14946;DHT22;7567;50.916;6.900;2023-11-22T21:16:33;4.00;99.90
14946;DHT22;7567;50.916;6.900;2023-11-22T21:19:01;3.90;99.90
14946;DHT22;7567;50.916;6.900;2023-11-22T21:21:27;3.90;99.90
14946;DHT22;7567;50.916;6.900;2023-11-22T21:23:56;4.00;99.90
14946;DHT22;7567;50.916;6.900;2023-11-22T21:26:22;3.90;99.90
14946;DHT22;7567;50.916;6.900;2023-11-22T21:28:58;3.90;99.90
14946;DHT22;7567;50.916;6.900;2023-11-22T21:31:24;4.00;99.90
14946;DHT22;7567;50.916;6.900;2023-11-22T21:33:50;4.10;99.90
14946;DHT22;7567;50.916;6.900;2023-11-22T21:36:16;4.00;99.90
14946;DHT22;7567;50.916;6.900;2023-11-22T21:38:43;4.00;99.90
14946;DHT22;7567;50.916;6.900;2023-11-22T21:41:09;4.00;99.90
14946;DHT22;7567;50.916;6.900;2023-11-22T21:43:37;4.00;99.90
14946;DHT22;7567;50.916;6.900;2023-11-22T21:46:03;4.00;99.90
14946;DHT22;7567;50.916;6.900;2023-11-22T21:48:30;4.10;99.90
14946;DHT22;7567;50.916;6.900;2023-11-22T21:50:56;4.10;99.90
14946;DHT22;7567;50.916;6.900;2023-11-22T21:53:24;4.10;99.90
14946;DHT22;7567;50.916;6.900;2023-11-22T21:56:17;4.10;99.90
14946;DHT22;7567;50.916;6.900;2023-11-22T21:58:43;4.10;99.90
14946;DHT22;7567;50.916;6.900;2023-11-22T22:01:12;4.10;99.90
14946;DHT22;7567;50.916;6.900;2023-11-22T22:03:41;4.10;99.90
14946;DHT22;7567;50.916;6.900;2023-11-22T22:06:08;4.20;99.90
14946;DHT22;7567;50.916;6.900;2023-11-22T22:08:34;4.20;99.90
14946;DHT22;7567;50.916;6.900;2023-11-22T22:11:01;4.20;99.90
14946;DHT22;7567;50.916;6.900;2023-11-22T22:13:27;4.20;99.90
14946;DHT22;7567;50.916;6.900;2023-11-22T22:15:54;4.10;99.90
14946;DHT22;7567;50.916;6.900;2023-11-22T22:18:21;4.10;99.90
14946;DHT22;7567;50.916;6.900;2023-11-22T22:20:47;4.20;99.90
14946;DHT22;7567;50.916;6.900;2023-11-22T22:23:13;4.20;99.90
14946;DHT22;7567;50.916;6.900;2023-11-22T22:25:39;4.20;99.90
14946;DHT22;7567;50.916;6.900;2023-11-22T22:28:09;4.20;99.90
14946;DHT22;7567;50.916;6.900;2023-11-22T22:30:35;4.20;99.90
14946;DHT22;7567;50.916;6.900;2023-11-22T22:33:03;4.20;99.90
14946;DHT22;7567;50.916;6.900;2023-11-22T22:35:29;4.20;99.90
14946;DHT22;7567;50.916;6.900;2023-11-22T22:37:58;4.10;99.90
14946;DHT22;7567;50.916;6.900;2023-11-22T22:40:24;4.10;99.90
14946;DHT22;7567;50.916;6.900;2023-11-22T22:42:50;4.10;99.90
14946;DHT22;7567;50.916;6.900;2023-11-22T22:45:16;3.90;99.90
14946;DHT22;7567;50.916;6.900;2023-11-22T22:47:42;3.80;99.90
14946;DHT22;7567;50.916;6.900;2023-11-22T22:50:09;3.80;99.90
14946;DHT22;7567;50.916;6.900;2023-11-22T22:52:35;3.70;99.90
14946;DHT22;7567;50.916;6.900;2023-11-22T22:55:01;3.70;99.90
14946;DHT22;7567;50.916;6.900;2023-11-22T22:57:28;3.60;99.90
14946;DHT22;7567;50.916;6.900;2023-11-22T22:59:54;3.70;99.90
14946;DHT22;7567;50.916;6.900;2023-11-22T23:02:20;3.60;99.90
14946;DHT22;7567;50.916;6.900;2023-11-22T23:04:46;3.60;99.90
14946;DHT22;7567;50.916;6.900;2023-11-22T23:07:12;3.60;99.90
14946;DHT22;7567;50.916;6.900;2023-11-22T23:09:41;3.60;99.90
14946;DHT22;7567;50.916;6.900;2023-11-22T23:12:10;3.60;99.90
14946;DHT22;7567;50.916;6.900;2023-11-22T23:14:38;3.50;99.90
14946;DHT22;7567;50.916;6.900;2023-11-22T23:17:04;3.50;99.90
14946;DHT22;7567;50.916;6.900;2023-11-22T23:19:51;3.40;99.90
14946;DHT22;7567;50.916;6.900;2023-11-22T23:22:18;3.40;99.90
14946;DHT22;7567;50.916;6.900;2023-11-22T23:24:44;3.40;99.90
14946;DHT22;7567;50.916;6.900;2023-11-22T23:27:10;3.40;99.90
14946;DHT22;7567;50.916;6.900;2023-11-22T23:29:36;3.50;99.90
14946;DHT22;7567;50.916;6.900;2023-11-22T23:32:05;3.50;99.90
14946;DHT22;7567;50.916;6.900;2023-11-22T23:34:32;3.50;99.90
14946;DHT22;7567;50.916;6.900;2023-11-22T23:37:01;3.50;99.90
14946;DHT22;7567;50.916;6.900;2023-11-22T23:39:29;3.60;99.90
14946;DHT22;7567;50.916;6.900;2023-11-22T23:41:54;3.70;99.90
14946;DHT22;7567;50.916;6.900;2023-11-22T23:44:20;3.70;99.90
14946;DHT22;7567;50.916;6.900;2023-11-22T23:46:47;3.80;99.90
14946;DHT22;7567;50.916;6.900;2023-11-22T23:49:13;3.90;99.90
14946;DHT22;7567;50.916;6.900;2023-11-22T23:51:41;4.00;99.90
14946;DHT22;7567;50.916;6.900;2023-11-22T23:54:07;4.00;99.90
14946;DHT22;7567;50.916;6.900;2023-11-22T23:56:35;4.00;99.90
14946;DHT22;7567;50.916;6.900;2023-11-22T23:59:01;4.10;99.90
